Corsicana, TX (75110)

3:30 PM CDT on August 31, 2015 (GMT -0500)
Bowie - Collins School area | | Change Station
CLOSE
Current Station
Personal Weather Station
Location: Corsicana, TX
Elevation: 433 ft
Nearby Weather Stations

Elev 433 ft 32.11 °N, 96.49 °W | Updated 8 seconds ago

Scattered Clouds
Scattered Clouds
92.3 °F
Feels Like 96 °F
N
1.1
Wind Variable Wind from SSE
Gusts 2.5 mph

Today
High -- | Low -- °F
--% Chance of Precip.
Yesterday
High -- | Low -- °F
Precip. -- in
7:00 AM 7:51 PM
Waning Gibbous, 94% visible
Pressure 29.99 in
Visibility 10.0 miles
Clouds Scattered Clouds 6000 ft
Heat Index 96 °F
Dew Point 67 °F
Humidity 44%
Rainfall 0.00 in
Snow Depth Not available.
UV 5.0 out of 12
Pollen 8.20 out of 12
Air Quality Not available.
Flu Activity Not available.
METAR KCRS 311953Z AUTO 15013KT 10SM SCT060 33/18 A3001 RMK AO2 SLP156 T03330183
Pressure 29.99 in
Visibility 10.0 miles
Clouds Scattered Clouds 6000 ft
Heat Index 96 °F
Dew Point 67 °F
Humidity 44%
Rainfall 0.00 in
Snow Depth Not available.
UV 5.0 out of 12
Pollen 8.20 out of 12
Air Quality Not available.
Flu Activity Not available.
METAR KCRS 311953Z AUTO 15013KT 10SM SCT060 33/18 A3001 RMK AO2 SLP156 T03330183

10-Day Weather Forecast

×

Almanac

Astronomy

Aug. 31, 2015 Rise Set
Actual Time
Civil Twilight
Nautical Twilight
Astronomical Twilight
Moon
Length of Visible Light
Length of Day
Tomorrow will be .
, % of the Moon is Illuminated

Today's Extremes

State Highs State Lows

Community

WunderPhotos

Upload Photos

1,851,352 photos uploaded!

WunderBlogs® & News

Nearby

Air Quality

  Air Quality AQ Index Pollutant
Not available.

Snow Depth

Station Depth Elevation

Earthquake Activity

City Distance Mag. Time & Date
Minimum magnitude displayed is 2.5.

Coastal Water Temperatures

Place Temperature

Stations

Nearby Weather Stations

Station Location Temp. Windchill Dew Point Humidity Wind Precip. Elev Updated Type